createdAt,value
2022-12-11T00:00:41.954Z,4.77
2022-12-11T00:03:44.055Z,4.82
2022-12-11T00:06:45.968Z,4.66
2022-12-11T00:09:47.997Z,4.80
2022-12-11T00:12:49.816Z,4.78
2022-12-11T00:15:51.680Z,5.28
2022-12-11T00:18:53.525Z,4.53
2022-12-11T00:21:55.357Z,4.81
2022-12-11T00:24:57.383Z,4.59
2022-12-11T00:27:59.211Z,4.59
2022-12-11T00:31:04.947Z,4.65
2022-12-11T00:34:06.900Z,4.41
2022-12-11T00:37:08.810Z,4.13
2022-12-11T00:40:10.954Z,4.70
2022-12-11T00:43:12.773Z,4.39
2022-12-11T00:46:14.833Z,4.50
2022-12-11T00:49:17.014Z,4.55
2022-12-11T00:52:18.831Z,4.62
2022-12-11T00:55:20.733Z,4.29
2022-12-11T00:58:22.843Z,4.74
2022-12-11T01:01:25.529Z,4.92
2022-12-11T01:04:27.412Z,4.70
2022-12-11T01:07:29.430Z,5.03
2022-12-11T01:10:31.911Z,4.61
2022-12-11T01:13:33.836Z,4.44
2022-12-11T01:16:36.014Z,4.81
2022-12-11T01:19:38.075Z,5.06
2022-12-11T01:22:40.132Z,4.71
2022-12-11T01:25:42.010Z,5.69
2022-12-11T01:28:44.341Z,5.65
2022-12-11T01:31:46.286Z,5.50
2022-12-11T01:34:48.140Z,4.83
2022-12-11T01:37:50.104Z,4.71
2022-12-11T01:40:51.918Z,5.19
2022-12-11T01:43:56.537Z,5.57
2022-12-11T01:46:58.660Z,4.77
2022-12-11T01:50:00.611Z,4.44
2022-12-11T01:53:02.724Z,4.47
2022-12-11T01:56:04.846Z,4.62
2022-12-11T01:59:07.724Z,4.52
2022-12-11T02:02:36.050Z,4.67
2022-12-11T02:05:37.934Z,4.29
2022-12-11T02:08:39.799Z,4.51
2022-12-11T02:11:48.069Z,3.88
2022-12-11T02:15:08.544Z,3.62
2022-12-11T02:18:19.717Z,3.84
2022-12-11T02:21:25.897Z,3.90
2022-12-11T02:24:39.965Z,3.88
2022-12-11T02:27:56.619Z,3.46
2022-12-11T02:31:06.435Z,3.63
2022-12-11T02:34:19.334Z,3.78
2022-12-11T02:37:22.004Z,3.16
2022-12-11T02:40:25.088Z,3.18
2022-12-11T02:43:26.976Z,3.54
2022-12-11T02:46:28.795Z,3.75
2022-12-11T02:49:30.625Z,3.78
2022-12-11T02:52:32.609Z,3.31
2022-12-11T02:55:34.452Z,2.86
2022-12-11T02:58:36.321Z,2.96
2022-12-11T03:01:38.162Z,2.96
2022-12-11T03:04:40.080Z,2.81
2022-12-11T03:07:42.904Z,2.79
2022-12-11T03:10:45.126Z,2.79
2022-12-11T03:13:46.976Z,2.82
2022-12-11T03:16:54.452Z,2.89
2022-12-11T03:20:00.787Z,2.50
2022-12-11T03:23:05.785Z,2.81
2022-12-11T03:26:10.992Z,2.95
2022-12-11T03:29:23.678Z,2.50
2022-12-11T03:32:30.084Z,2.82
2022-12-11T03:35:31.936Z,2.90
2022-12-11T03:38:38.506Z,2.90
2022-12-11T03:41:40.545Z,2.94
2022-12-11T03:44:42.956Z,3.45
2022-12-11T03:47:44.898Z,3.42
2022-12-11T03:50:46.786Z,2.75
2022-12-11T03:53:48.700Z,3.20
2022-12-11T03:56:51.924Z,2.93
2022-12-11T03:59:53.819Z,3.12
2022-12-11T04:03:14.393Z,2.77
2022-12-11T04:06:16.668Z,2.80
2022-12-11T04:09:18.639Z,2.84
2022-12-11T04:12:20.572Z,2.63
2022-12-11T04:15:22.443Z,2.93
2022-12-11T04:18:43.109Z,2.58
2022-12-11T04:22:03.553Z,2.27
2022-12-11T04:25:06.737Z,2.29
2022-12-11T04:28:08.593Z,2.54
2022-12-11T04:31:14.115Z,2.40
2022-12-11T04:34:16.121Z,2.02
2022-12-11T04:37:17.937Z,3.07
2022-12-11T04:40:20.239Z,2.18
2022-12-11T04:43:22.066Z,2.61
2022-12-11T04:46:24.444Z,2.33
2022-12-11T04:49:26.332Z,2.33
2022-12-11T04:52:28.282Z,2.58
2022-12-11T04:55:30.165Z,2.63
2022-12-11T04:58:32.009Z,2.83
2022-12-11T05:01:33.912Z,2.49
2022-12-11T05:04:35.974Z,2.77
2022-12-11T05:07:38.012Z,2.38
2022-12-11T05:10:39.876Z,2.27
2022-12-11T05:13:41.763Z,2.35
2022-12-11T05:16:43.851Z,2.73
2022-12-11T05:19:47.049Z,2.30
2022-12-11T05:22:48.843Z,2.53
2022-12-11T05:25:57.171Z,2.26
2022-12-11T05:28:59.167Z,2.36
2022-12-11T05:32:01.179Z,2.32
2022-12-11T05:35:03.789Z,1.90
2022-12-11T05:38:05.634Z,1.86
2022-12-11T05:41:07.544Z,2.27
2022-12-11T05:44:11.352Z,2.29
2022-12-11T05:47:13.408Z,2.26
2022-12-11T05:50:15.280Z,2.10
2022-12-11T05:53:17.130Z,2.48
2022-12-11T05:56:20.254Z,2.39
2022-12-11T05:59:22.196Z,2.29
2022-12-11T06:02:24.232Z,2.15
2022-12-11T06:05:26.236Z,2.26
2022-12-11T06:08:28.434Z,2.89
2022-12-11T06:11:30.979Z,2.45
2022-12-11T06:14:32.788Z,2.18
2022-12-11T06:17:34.624Z,2.27
2022-12-11T06:20:36.751Z,2.71
2022-12-11T06:23:38.806Z,2.77
2022-12-11T06:26:40.795Z,2.65
2022-12-11T06:29:42.608Z,2.90
2022-12-11T06:32:44.606Z,2.84
2022-12-11T06:35:46.535Z,2.36
2022-12-11T06:38:48.678Z,2.75
2022-12-11T06:41:50.543Z,2.70
2022-12-11T06:44:52.393Z,2.76
2022-12-11T06:47:54.313Z,2.31
2022-12-11T06:50:56.149Z,2.62
2022-12-11T06:53:57.994Z,2.47
2022-12-11T06:56:59.930Z,2.86
2022-12-11T07:00:01.961Z,2.38
2022-12-11T07:03:04.241Z,2.24
2022-12-11T07:06:06.140Z,2.68
2022-12-11T07:09:08.044Z,2.22
2022-12-11T07:12:09.954Z,2.30
2022-12-11T07:15:12.156Z,2.61
2022-12-11T07:18:14.581Z,2.39
2022-12-11T07:21:16.773Z,2.36
2022-12-11T07:24:18.925Z,3.33
2022-12-11T07:27:20.888Z,2.92
2022-12-11T07:30:22.957Z,2.35
2022-12-11T07:33:24.808Z,2.47
2022-12-11T07:36:27.595Z,2.67
2022-12-11T07:39:29.479Z,2.64
2022-12-11T07:42:31.369Z,2.33
2022-12-11T07:45:33.255Z,2.76
2022-12-11T07:48:35.684Z,2.48
2022-12-11T07:51:38.100Z,2.36
2022-12-11T07:54:40.009Z,2.91
2022-12-11T07:57:41.872Z,2.65
2022-12-11T08:00:44.511Z,2.51
2022-12-11T08:03:46.640Z,2.81
2022-12-11T08:06:48.515Z,2.89
2022-12-11T08:09:50.437Z,2.86
2022-12-11T08:12:52.505Z,2.35
2022-12-11T08:15:54.903Z,3.08
2022-12-11T08:18:56.916Z,2.74
2022-12-11T08:21:58.768Z,3.32
2022-12-11T08:25:00.628Z,2.50
2022-12-11T08:28:02.763Z,2.46
2022-12-11T08:31:05.763Z,2.68
2022-12-11T08:34:07.668Z,3.05
2022-12-11T08:37:09.655Z,3.06
2022-12-11T08:40:12.464Z,2.61
2022-12-11T08:43:14.448Z,3.17
2022-12-11T08:46:16.600Z,3.03
2022-12-11T08:49:18.632Z,3.49
2022-12-11T08:52:20.610Z,3.76
2022-12-11T08:55:22.604Z,3.29
2022-12-11T08:58:24.563Z,3.06
2022-12-11T09:01:26.738Z,3.08
2022-12-11T09:04:28.824Z,3.03
2022-12-11T09:07:30.670Z,2.93
2022-12-11T09:10:32.492Z,3.16
2022-12-11T09:13:34.394Z,2.82
2022-12-11T09:16:37.857Z,2.54
2022-12-11T09:19:39.854Z,2.35
2022-12-11T09:22:42.844Z,2.45
2022-12-11T09:25:44.910Z,2.65
2022-12-11T09:28:47.450Z,3.28
2022-12-11T09:31:49.912Z,3.39
2022-12-11T09:34:53.664Z,3.20
2022-12-11T09:37:55.765Z,2.65
2022-12-11T09:40:57.922Z,2.73
2022-12-11T09:44:06.816Z,3.03
2022-12-11T09:47:20.749Z,2.77
2022-12-11T09:50:24.020Z,2.76
2022-12-11T09:53:34.374Z,3.03
2022-12-11T09:56:39.068Z,3.13
2022-12-11T09:59:44.426Z,2.77
2022-12-11T10:02:59.116Z,3.46
2022-12-11T10:06:04.516Z,3.10
2022-12-11T10:09:07.002Z,3.40
2022-12-11T10:12:08.868Z,3.15
2022-12-11T10:15:33.995Z,3.10
2022-12-11T10:18:35.915Z,3.29
2022-12-11T10:21:40.160Z,3.38
2022-12-11T10:28:14.510Z,3.13
2022-12-11T10:31:19.518Z,3.41
2022-12-11T10:34:34.310Z,3.09
2022-12-11T10:37:36.275Z,2.94
2022-12-11T10:40:38.985Z,3.42
2022-12-11T10:43:42.469Z,3.25
2022-12-11T10:46:44.617Z,3.74
2022-12-11T10:50:12.815Z,3.21
2022-12-11T10:53:21.315Z,2.88
2022-12-11T10:56:29.579Z,3.00
2022-12-11T10:59:57.911Z,3.36
2022-12-11T11:03:00.231Z,3.44
2022-12-11T11:06:03.655Z,3.66
2022-12-11T11:09:23.320Z,3.42
2022-12-11T11:12:27.081Z,3.32
2022-12-11T11:15:29.714Z,3.65
2022-12-11T11:18:31.566Z,3.59
2022-12-11T11:21:34.820Z,3.47
2022-12-11T11:24:38.634Z,3.12
2022-12-11T11:27:44.684Z,2.89
2022-12-11T11:30:54.690Z,3.47
2022-12-11T11:33:57.846Z,2.93
2022-12-11T11:37:01.140Z,3.03
2022-12-11T11:40:08.894Z,3.07
2022-12-11T11:43:10.693Z,2.95
2022-12-11T11:46:15.506Z,3.21
2022-12-11T11:49:34.461Z,3.25
2022-12-11T11:52:38.291Z,3.49
2022-12-11T11:55:50.464Z,3.28
2022-12-11T11:58:56.252Z,3.70
2022-12-11T12:01:58.529Z,3.75
2022-12-11T12:05:00.382Z,3.72
2022-12-11T12:08:05.109Z,4.32
2022-12-11T12:11:16.373Z,3.57
2022-12-11T12:14:50.622Z,3.38
2022-12-11T12:17:53.634Z,3.32
2022-12-11T12:21:00.270Z,3.37
2022-12-11T12:24:08.402Z,3.32
2022-12-11T12:27:51.112Z,3.48
2022-12-11T12:31:04.184Z,3.13
2022-12-11T12:34:24.726Z,3.12
2022-12-11T12:37:38.665Z,3.17
2022-12-11T12:40:52.829Z,2.85
2022-12-11T12:44:06.601Z,3.30
2022-12-11T12:47:09.949Z,3.77
2022-12-11T12:50:16.002Z,3.41
2022-12-11T12:53:22.093Z,2.95
2022-12-11T12:56:23.895Z,2.83
2022-12-11T12:59:26.587Z,2.70
2022-12-11T13:02:28.517Z,3.27
2022-12-11T13:05:31.203Z,3.30
2022-12-11T13:08:44.393Z,3.52
2022-12-11T13:11:47.282Z,3.11
2022-12-11T13:14:56.106Z,3.55
2022-12-11T13:17:58.329Z,3.49
2022-12-11T13:21:00.463Z,3.58
2022-12-11T13:24:16.732Z,3.42
2022-12-11T13:27:25.927Z,3.45
2022-12-11T13:30:28.414Z,3.20
2022-12-11T13:33:30.696Z,3.80
2022-12-11T13:36:33.272Z,4.11
2022-12-11T13:39:35.835Z,3.64
2022-12-11T13:42:39.330Z,3.21
2022-12-11T13:45:49.130Z,3.51
2022-12-11T13:49:00.838Z,3.06
2022-12-11T13:52:03.512Z,3.09
2022-12-11T13:55:14.304Z,3.15
2022-12-11T13:58:19.842Z,3.12
2022-12-11T14:01:22.415Z,3.11
2022-12-11T14:04:24.703Z,3.43
2022-12-11T14:07:27.729Z,3.15
2022-12-11T14:10:32.760Z,3.73
2022-12-11T14:13:35.768Z,4.07
2022-12-11T14:16:37.643Z,3.86
2022-12-11T14:19:39.536Z,2.85
2022-12-11T14:22:41.366Z,3.44
2022-12-11T14:25:43.227Z,2.95
2022-12-11T14:28:45.059Z,3.09
2022-12-11T14:31:47.077Z,3.38
2022-12-11T14:34:49.026Z,3.63
2022-12-11T14:37:50.967Z,3.04
2022-12-11T14:40:55.232Z,2.67
2022-12-11T14:44:00.424Z,2.71
2022-12-11T14:47:06.316Z,2.75
2022-12-11T14:50:10.440Z,2.50
2022-12-11T14:53:17.696Z,2.51
2022-12-11T14:56:20.519Z,2.94
2022-12-11T14:59:28.369Z,2.14
2022-12-11T15:02:34.407Z,1.97
2022-12-11T15:05:40.809Z,2.53
2022-12-11T15:08:42.916Z,2.90
2022-12-11T15:11:44.793Z,2.74
2022-12-11T15:14:49.251Z,2.48
2022-12-11T15:17:52.886Z,2.78
2022-12-11T15:20:56.165Z,3.16
2022-12-11T15:23:59.140Z,3.02
2022-12-11T15:27:01.242Z,2.94
2022-12-11T15:30:15.238Z,3.59
2022-12-11T15:33:22.116Z,2.82
2022-12-11T15:36:30.214Z,2.96
2022-12-11T15:39:32.057Z,2.63
2022-12-11T15:42:39.073Z,3.08
2022-12-11T15:45:43.433Z,2.86
2022-12-11T15:48:45.373Z,2.55
2022-12-11T15:51:47.301Z,2.35
2022-12-11T15:54:49.250Z,2.52
2022-12-11T15:57:52.433Z,2.91
2022-12-11T16:00:54.448Z,2.83
2022-12-11T16:03:59.216Z,2.37
2022-12-11T16:07:05.540Z,3.11
2022-12-11T16:10:08.049Z,2.06
2022-12-11T16:13:10.282Z,2.52
2022-12-11T16:16:12.157Z,2.84
2022-12-11T16:19:14.121Z,2.78
2022-12-11T16:22:16.305Z,2.84
2022-12-11T16:25:18.179Z,2.31
2022-12-11T16:28:21.305Z,2.58
2022-12-11T16:31:23.767Z,2.88
2022-12-11T16:34:26.276Z,2.62
2022-12-11T16:37:28.120Z,2.68
2022-12-11T16:40:30.010Z,2.39
2022-12-11T16:43:32.442Z,2.70
2022-12-11T16:46:34.449Z,2.43
2022-12-11T16:49:36.314Z,2.27
2022-12-11T16:52:38.242Z,2.70
2022-12-11T16:55:40.515Z,2.24
2022-12-11T16:58:42.415Z,2.41
2022-12-11T17:01:45.176Z,2.02
2022-12-11T17:04:52.136Z,2.34
2022-12-11T17:07:55.742Z,1.73
2022-12-11T17:10:57.651Z,1.82
2022-12-11T17:14:00.085Z,1.53
2022-12-11T17:17:02.125Z,1.75
2022-12-11T17:20:04.199Z,2.02
2022-12-11T17:23:06.094Z,2.09
2022-12-11T17:26:10.780Z,2.24
2022-12-11T17:29:12.988Z,1.91
2022-12-11T17:32:15.513Z,2.04
2022-12-11T17:35:17.491Z,2.01
2022-12-11T17:38:19.340Z,1.82
2022-12-11T17:41:21.896Z,1.83
2022-12-11T17:44:24.536Z,2.02
2022-12-11T17:47:26.642Z,1.76
2022-12-11T17:50:28.465Z,1.55
2022-12-11T17:53:30.422Z,1.81
2022-12-11T17:56:34.859Z,1.44
2022-12-11T17:59:36.889Z,1.82
2022-12-11T18:02:38.877Z,2.36
2022-12-11T18:05:41.559Z,1.79
2022-12-11T18:08:45.534Z,1.56
2022-12-11T18:11:47.529Z,1.17
2022-12-11T18:14:49.518Z,1.83
2022-12-11T18:17:51.453Z,2.18
2022-12-11T18:20:53.346Z,1.92
2022-12-11T18:23:55.288Z,1.53
2022-12-11T18:26:57.603Z,1.46
2022-12-11T18:29:59.655Z,1.71
2022-12-11T18:33:02.109Z,1.41
2022-12-11T18:36:04.312Z,1.52
2022-12-11T18:39:06.234Z,1.80
2022-12-11T18:42:32.244Z,1.44
2022-12-11T18:45:30.457Z,1.69
2022-12-11T18:48:32.247Z,2.03
2022-12-11T18:51:34.293Z,2.04
2022-12-11T18:54:36.469Z,1.76
2022-12-11T18:57:38.730Z,1.62
2022-12-11T19:00:40.842Z,1.93
2022-12-11T19:03:42.688Z,1.81
2022-12-11T19:06:44.669Z,1.49
2022-12-11T19:09:48.477Z,1.78
2022-12-11T19:12:50.521Z,1.69
2022-12-11T19:15:52.552Z,1.39
2022-12-11T19:18:54.488Z,1.85
2022-12-11T19:21:56.422Z,2.31
2022-12-11T19:24:58.355Z,1.31
2022-12-11T19:28:00.273Z,1.18
2022-12-11T19:31:02.232Z,1.71
2022-12-11T19:34:04.104Z,1.97
2022-12-11T19:37:05.962Z,2.28
2022-12-11T19:40:09.429Z,1.67
2022-12-11T19:43:11.660Z,2.20
2022-12-11T19:46:13.902Z,1.83
2022-12-11T19:49:15.897Z,1.89
2022-12-11T19:52:17.798Z,1.62
2022-12-11T19:55:21.541Z,1.46
2022-12-11T19:58:23.415Z,1.67
2022-12-11T20:01:28.811Z,1.46
2022-12-11T20:04:30.897Z,1.54
2022-12-11T20:07:32.692Z,1.44
2022-12-11T20:10:35.163Z,1.16
2022-12-11T20:13:37.781Z,1.12
2022-12-11T20:17:09.363Z,1.39
2022-12-11T20:20:01.432Z,1.36
2022-12-11T20:23:03.383Z,1.21
2022-12-11T20:26:12.659Z,1.46
2022-12-11T20:29:14.836Z,1.50
2022-12-11T20:32:16.853Z,1.25
2022-12-11T20:35:18.811Z,1.03
2022-12-11T20:38:22.115Z,1.22
2022-12-11T20:41:24.445Z,1.36
2022-12-11T20:44:26.307Z,0.78
2022-12-11T20:47:28.129Z,1.05
2022-12-11T20:50:29.942Z,0.87
2022-12-11T20:53:31.824Z,1.30
2022-12-11T20:56:33.767Z,1.22
2022-12-11T20:59:35.648Z,0.97
2022-12-11T21:02:37.475Z,1.15
2022-12-11T21:05:42.897Z,1.03
2022-12-11T21:08:44.762Z,1.05
2022-12-11T21:11:46.556Z,0.58
2022-12-11T21:14:48.400Z,0.79
2022-12-11T21:17:50.247Z,0.88
2022-12-11T21:20:55.841Z,0.56
2022-12-11T21:23:57.641Z,1.18
2022-12-11T21:26:59.581Z,1.17
2022-12-11T21:30:01.692Z,0.78
2022-12-11T21:33:03.505Z,0.48
2022-12-11T21:36:06.068Z,0.75
2022-12-11T21:39:07.929Z,0.60
2022-12-11T21:42:09.854Z,1.24
2022-12-11T21:45:58.843Z,1.24
2022-12-11T21:48:33.526Z,0.76
2022-12-11T21:51:40.251Z,0.85
2022-12-11T21:54:44.530Z,0.66
2022-12-11T21:57:46.487Z,0.26
2022-12-11T22:00:48.439Z,0.40
2022-12-11T22:03:50.779Z,0.38
2022-12-11T22:06:52.675Z,1.05
2022-12-11T22:09:54.521Z,0.38
2022-12-11T22:12:56.373Z,0.94
2022-12-11T22:15:58.174Z,0.96
2022-12-11T22:19:00.437Z,0.54
2022-12-11T22:22:02.241Z,0.77
2022-12-11T22:25:07.061Z,0.52
2022-12-11T22:28:08.989Z,-0.13
2022-12-11T22:31:14.350Z,-0.12
2022-12-11T22:34:16.270Z,0.17
2022-12-11T22:37:18.109Z,0.20
2022-12-11T22:40:20.026Z,-0.04
2022-12-11T22:43:21.854Z,-0.10
2022-12-11T22:46:24.870Z,0.04
2022-12-11T22:49:26.722Z,-0.08
2022-12-11T22:52:28.688Z,0.56
2022-12-11T22:55:30.512Z,-0.28
2022-12-11T22:58:32.352Z,-0.16
2022-12-11T23:01:34.443Z,0.09
2022-12-11T23:04:36.388Z,0.11
2022-12-11T23:07:38.512Z,0.13
2022-12-11T23:10:41.005Z,0.04
2022-12-11T23:13:42.920Z,0.09
2022-12-11T23:16:44.886Z,0.61
2022-12-11T23:19:46.780Z,0.14
2022-12-11T23:22:48.720Z,0.31
2022-12-11T23:25:50.625Z,0.37
2022-12-11T23:28:52.814Z,-0.20
2022-12-11T23:31:54.649Z,0.23
2022-12-11T23:34:56.500Z,0.32
2022-12-11T23:37:58.361Z,0.13
2022-12-11T23:41:00.813Z,-0.10
2022-12-11T23:44:03.064Z,-0.22
2022-12-11T23:47:05.089Z,-0.40
2022-12-11T23:50:06.961Z,0.46
2022-12-11T23:53:08.942Z,0.12
2022-12-11T23:56:12.493Z,0.30
2022-12-11T23:59:14.437Z,0.19
